Time;durP1;ratioP1;P1;durP2;ratioP2;P2;SDS_P1;SDS_P2;PMS_P1;PMS_P2;Temp;Humidity;BMP_temperature;BMP_pressure;BME280_temperature;BME280_humidity;BME280_pressure;Samples;Min_cycle;Max_cycle;Signal;HPM_P1;HPM_P2
2022/05/06 00:01:37;;;;;;;22.98;16.48;;;9.30;99.90;;;;;;5071578;28;20089;-69
2022/05/06 00:04:04;;;;;;;20.10;15.85;;;9.30;99.90;;;;;;5068741;28;20044;-69
2022/05/06 00:06:31;;;;;;;16.20;14.38;;;9.20;99.90;;;;;;5088529;28;20036;-69
2022/05/06 00:08:57;;;;;;;16.60;13.85;;;9.20;99.90;;;;;;5069232;28;20496;-69
2022/05/06 00:11:24;;;;;;;17.42;14.25;;;9.20;99.90;;;;;;5053505;28;20044;-69
2022/05/06 00:13:52;;;;;;;18.85;14.90;;;9.20;99.90;;;;;;5072384;28;20395;-69
2022/05/06 00:16:23;;;;;;;18.25;14.57;;;9.10;99.90;;;;;;5087698;28;20042;-69
2022/05/06 00:18:49;;;;;;;18.17;16.13;;;9.10;99.90;;;;;;5050891;28;20044;-69
2022/05/06 00:21:15;;;;;;;17.83;14.65;;;9.00;99.90;;;;;;5070350;28;20040;-69
2022/05/06 00:23:41;;;;;;;18.92;14.52;;;9.00;99.90;;;;;;5088526;28;20071;-69
2022/05/06 00:26:08;;;;;;;19.55;16.58;;;9.00;99.90;;;;;;5054847;28;20125;-69
2022/05/06 00:28:34;;;;;;;21.50;16.20;;;8.90;99.90;;;;;;5072223;28;20044;-69
2022/05/06 00:31:03;;;;;;;23.60;16.73;;;8.90;99.90;;;;;;5070777;28;20040;-69
2022/05/06 00:33:29;;;;;;;17.92;14.68;;;8.80;99.90;;;;;;5088072;28;20044;-69
2022/05/06 00:35:58;;;;;;;18.90;14.85;;;8.80;99.90;;;;;;5072264;28;20379;-69
2022/05/06 00:38:24;;;;;;;23.63;15.98;;;8.70;99.90;;;;;;5070773;28;20036;-68
2022/05/06 00:40:51;;;;;;;18.83;14.35;;;8.60;99.90;;;;;;5089809;28;20036;-69
2022/05/06 00:43:18;;;;;;;20.40;15.60;;;8.70;99.90;;;;;;5068886;28;20052;-68
2022/05/06 00:45:55;;;;;;;17.95;14.15;;;8.60;99.90;;;;;;5089184;28;20028;-68
2022/05/06 00:48:26;;;;;;;21.85;14.70;;;8.60;99.90;;;;;;5087882;28;20043;-68
2022/05/06 00:50:52;;;;;;;18.88;13.48;;;8.60;99.90;;;;;;5070975;28;20471;-68
2022/05/06 00:53:18;;;;;;;19.05;13.82;;;8.60;99.90;;;;;;5069869;28;20139;-68
2022/05/06 00:55:44;;;;;;;16.95;13.30;;;8.60;99.90;;;;;;5054287;28;20048;-68
2022/05/06 00:58:10;;;;;;;16.75;12.77;;;8.50;99.90;;;;;;5088037;28;20084;-68
2022/05/06 01:00:37;;;;;;;17.70;12.65;;;8.50;99.90;;;;;;5070776;28;20048;-69
2022/05/06 01:03:02;;;;;;;15.18;13.20;;;8.50;99.90;;;;;;5071339;28;20044;-69
2022/05/06 01:05:29;;;;;;;18.40;12.88;;;8.50;99.90;;;;;;5069935;28;20162;-68
2022/05/06 01:07:57;;;;;;;18.05;13.40;;;8.50;99.90;;;;;;5089075;28;20047;-68
2022/05/06 01:10:24;;;;;;;14.00;12.50;;;8.50;99.90;;;;;;5056023;28;20110;-69
2022/05/06 01:12:50;;;;;;;15.30;12.32;;;8.40;99.90;;;;;;5091625;28;20487;-68
2022/05/06 01:15:30;;;;;;;15.00;12.30;;;8.40;99.90;;;;;;5092330;28;20396;-68
2022/05/06 01:17:57;;;;;;;14.32;11.95;;;8.40;99.90;;;;;;5073009;28;20032;-68
2022/05/06 01:20:24;;;;;;;15.55;12.05;;;8.40;99.90;;;;;;5091666;28;20043;-69
2022/05/06 01:22:56;;;;;;;18.15;14.23;;;8.40;99.90;;;;;;5073089;28;20115;-68
2022/05/06 01:25:22;;;;;;;22.25;14.45;;;8.40;99.90;;;;;;5073670;28;20040;-68
2022/05/06 01:27:57;;;;;;;20.02;14.57;;;8.30;99.90;;;;;;5075077;28;20052;-68
2022/05/06 01:30:35;;;;;;;20.67;15.30;;;8.30;99.90;;;;;;5075154;28;20115;-68
2022/05/06 01:33:04;;;;;;;16.02;13.43;;;8.30;99.90;;;;;;5072579;28;20040;-68
2022/05/06 01:35:31;;;;;;;17.10;14.32;;;8.20;99.90;;;;;;5092308;28;20032;-68
2022/05/06 01:38:02;;;;;;;15.68;12.75;;;8.20;99.90;;;;;;5090419;28;20101;-68
2022/05/06 01:40:31;;;;;;;19.02;13.75;;;8.20;99.90;;;;;;5092436;28;20032;-68
2022/05/06 01:42:58;;;;;;;14.93;12.57;;;8.10;99.90;;;;;;5073504;28;20123;-68
2022/05/06 01:45:28;;;;;;;17.10;12.18;;;8.10;99.90;;;;;;5073350;28;20539;-68
2022/05/06 01:47:55;;;;;;;16.33;11.32;;;8.10;99.90;;;;;;5072919;28;20584;-68
2022/05/06 01:50:23;;;;;;;14.85;12.48;;;8.00;99.90;;;;;;5073570;28;20028;-69
2022/05/06 01:52:50;;;;;;;15.48;12.73;;;8.00;99.90;;;;;;5091177;28;20036;-68
2022/05/06 01:55:17;;;;;;;18.45;13.23;;;7.90;99.90;;;;;;5056356;28;20097;-68
2022/05/06 01:57:44;;;;;;;15.75;12.73;;;7.80;99.90;;;;;;5073112;28;20058;-68
2022/05/06 02:00:12;;;;;;;18.48;13.85;;;7.80;99.90;;;;;;5074279;28;20411;-68
2022/05/06 02:02:38;;;;;;;16.77;14.43;;;7.80;99.90;;;;;;5091797;28;20052;-68
2022/05/06 02:05:19;;;;;;;18.60;13.60;;;7.70;99.90;;;;;;5071816;28;20503;-68
2022/05/06 02:07:49;;;;;;;21.67;16.60;;;7.60;99.90;;;;;;5072595;28;20052;-68
2022/05/06 02:10:21;;;;;;;19.55;14.02;;;7.60;99.90;;;;;;5071604;28;20429;-68
2022/05/06 02:12:47;;;;;;;19.42;14.10;;;7.60;99.90;;;;;;5072166;28;20052;-68
2022/05/06 02:15:15;;;;;;;15.38;13.20;;;7.50;99.90;;;;;;5074617;28;20522;-68
2022/05/06 02:17:41;;;;;;;17.30;14.00;;;7.50;99.90;;;;;;5072044;28;20403;-68
2022/05/06 02:20:08;;;;;;;14.68;12.43;;;7.50;99.90;;;;;;5075164;28;20460;-68
2022/05/06 02:22:36;;;;;;;14.90;12.80;;;7.50;99.90;;;;;;5090892;28;20074;-68
2022/05/06 02:25:09;;;;;;;15.98;12.32;;;7.50;99.90;;;;;;5074304;28;20752;-68
2022/05/06 02:27:38;;;;;;;17.55;14.00;;;7.40;99.90;;;;;;5074461;28;20052;-68
2022/05/06 02:35:37;;;;;;;14.60;12.38;;;7.40;99.90;;;;;;5089511;28;20046;-68
2022/05/06 02:38:05;;;;;;;19.70;14.18;;;7.20;99.90;;;;;;5090436;28;20500;-68
2022/05/06 02:40:35;;;;;;;14.07;11.15;;;7.30;99.90;;;;;;5073041;28;20075;-68
2022/05/06 02:43:05;;;;;;;14.95;11.10;;;7.30;99.90;;;;;;5071659;28;20047;-68
2022/05/06 02:45:32;;;;;;;12.52;10.98;;;7.30;99.90;;;;;;5072140;28;20433;-68
2022/05/06 02:47:58;;;;;;;14.35;12.07;;;7.30;99.90;;;;;;5072173;28;20519;-68
2022/05/06 02:50:24;;;;;;;17.30;12.85;;;7.30;99.90;;;;;;5073829;28;20062;-68
2022/05/06 02:52:51;;;;;;;17.73;12.27;;;7.20;99.90;;;;;;5073780;28;20048;-68
2022/05/06 02:55:17;;;;;;;15.50;11.35;;;7.20;99.90;;;;;;5090718;28;20039;-68
2022/05/06 02:57:43;;;;;;;15.25;11.25;;;7.20;99.90;;;;;;5091821;28;20048;-68
2022/05/06 03:00:09;;;;;;;19.27;13.57;;;7.10;99.90;;;;;;5073264;28;20109;-68
2022/05/06 03:02:35;;;;;;;18.17;14.20;;;7.20;99.90;;;;;;5073093;28;20036;-68
2022/05/06 03:05:01;;;;;;;19.02;14.25;;;7.20;99.90;;;;;;5089432;28;20132;-68
2022/05/06 03:07:27;;;;;;;18.38;13.80;;;7.20;99.90;;;;;;5067757;28;20033;-68
2022/05/06 03:09:52;;;;;;;16.25;12.70;;;7.10;99.90;;;;;;5072046;28;20093;-68
2022/05/06 03:12:29;;;;;;;17.90;13.50;;;7.10;99.90;;;;;;5073363;28;20105;-67
2022/05/06 03:14:55;;;;;;;15.00;12.98;;;7.10;99.90;;;;;;5072924;28;20043;-68
2022/05/06 03:17:21;;;;;;;15.70;11.95;;;7.10;99.90;;;;;;5089525;28;20028;-68
2022/05/06 03:19:47;;;;;;;13.40;11.38;;;7.10;99.90;;;;;;5072252;28;20119;-68
2022/05/06 03:22:16;;;;;;;14.50;11.75;;;7.10;99.90;;;;;;5086571;28;20097;-68
2022/05/06 03:24:42;;;;;;;14.32;11.00;;;7.10;99.90;;;;;;5071790;28;20046;-67
2022/05/06 03:30:12;;;;;;;12.95;10.57;;;7.00;99.90;;;;;;5007246;28;20054;-68
2022/05/06 03:32:38;;;;;;;13.75;10.52;;;7.00;99.90;;;;;;5003058;28;20064;-68
2022/05/06 03:35:04;;;;;;;14.40;10.57;;;7.00;99.90;;;;;;5027562;28;20059;-67
2022/05/06 03:37:30;;;;;;;13.27;10.40;;;7.00;99.90;;;;;;5089001;28;20042;-67
2022/05/06 03:39:56;;;;;;;15.13;11.85;;;6.90;99.90;;;;;;5088550;28;20043;-67
2022/05/06 03:42:22;;;;;;;14.57;11.68;;;6.90;99.90;;;;;;5072694;28;20131;-68
2022/05/06 03:44:48;;;;;;;12.43;11.13;;;6.90;99.90;;;;;;5071551;28;20126;-68
2022/05/06 03:47:13;;;;;;;13.32;11.50;;;6.90;99.90;;;;;;5090688;28;20491;-68
2022/05/06 03:49:39;;;;;;;23.70;12.50;;;6.90;99.90;;;;;;5071724;28;20044;-68
2022/05/06 03:52:05;;;;;;;13.07;11.50;;;6.80;99.90;;;;;;5072438;28;20127;-68
2022/05/06 03:54:31;;;;;;;16.08;12.07;;;6.80;99.90;;;;;;5071877;28;20055;-68
2022/05/06 03:56:56;;;;;;;15.90;12.00;;;6.70;99.90;;;;;;5090980;28;20043;-68
2022/05/06 03:59:22;;;;;;;14.32;11.32;;;6.70;99.90;;;;;;5072063;28;20040;-68
2022/05/06 04:01:48;;;;;;;12.90;10.63;;;6.70;99.90;;;;;;5055183;28;20564;-68
2022/05/06 04:04:13;;;;;;;24.92;13.75;;;6.70;99.90;;;;;;5069555;28;20042;-68
2022/05/06 04:06:39;;;;;;;31.80;15.38;;;6.70;99.90;;;;;;5072654;28;20092;-68
2022/05/06 04:09:05;;;;;;;16.85;13.63;;;6.70;99.90;;;;;;5072173;28;20115;-68
2022/05/06 04:11:30;;;;;;;16.95;13.80;;;6.80;99.90;;;;;;5071956;28;20067;-68
2022/05/06 04:13:56;;;;;;;17.70;13.45;;;6.70;99.90;;;;;;5090143;28;20472;-68
2022/05/06 04:16:24;;;;;;;17.98;14.60;;;6.80;99.90;;;;;;5090649;28;20080;-68
2022/05/06 04:18:50;;;;;;;16.40;13.45;;;6.70;99.90;;;;;;5070129;28;20040;-68
2022/05/06 04:24:00;;;;;;;19.27;14.88;;;6.90;99.90;;;;;;5070815;28;20055;-68
2022/05/06 04:26:25;;;;;;;18.38;14.10;;;6.80;99.90;;;;;;5070871;28;20040;-68
2022/05/06 04:28:51;;;;;;;21.00;15.57;;;6.80;99.90;;;;;;5072261;28;20044;-68
2022/05/06 04:31:17;;;;;;;19.77;15.95;;;6.90;99.90;;;;;;5071881;28;20044;-68
2022/05/06 04:33:43;;;;;;;24.52;15.90;;;6.90;99.90;;;;;;5089338;28;20115;-68
2022/05/06 04:36:09;;;;;;;27.92;17.38;;;7.00;99.90;;;;;;5071447;28;20139;-67
2022/05/06 04:38:35;;;;;;;27.35;18.90;;;7.00;99.90;;;;;;5070900;28;20071;-68
2022/05/06 04:41:02;;;;;;;92.85;21.77;;;7.10;99.90;;;;;;5054498;28;20052;-68
2022/05/06 04:43:28;;;;;;;127.65;25.25;;;7.10;99.90;;;;;;5057204;28;20055;-68
2022/05/06 04:45:55;;;;;;;149.65;27.05;;;7.10;99.90;;;;;;5075703;28;20052;-68
2022/05/06 04:48:21;;;;;;;129.95;26.35;;;7.10;99.90;;;;;;5073729;28;20040;-68
2022/05/06 04:50:47;;;;;;;134.88;28.23;;;7.10;99.90;;;;;;5076331;28;20443;-68
2022/05/06 04:53:14;;;;;;;95.85;27.55;;;7.10;99.90;;;;;;5075295;28;20503;-68
2022/05/06 04:55:43;;;;;;;119.28;28.38;;;7.20;99.90;;;;;;5094547;28;20040;-67
2022/05/06 04:58:10;;;;;;;55.25;27.15;;;7.20;99.90;;;;;;5092687;28;20455;-67
2022/05/06 05:00:36;;;;;;;77.53;25.00;;;7.20;99.90;;;;;;5096746;28;20051;-67
2022/05/06 05:03:03;;;;;;;92.18;24.85;;;7.30;99.90;;;;;;5093065;28;20420;-68
2022/05/06 05:05:29;;;;;;;76.00;23.77;;;7.40;99.90;;;;;;5074483;28;20032;-68
2022/05/06 05:07:54;;;;;;;66.68;24.25;;;7.40;99.90;;;;;;5075322;28;20143;-68
2022/05/06 05:10:21;;;;;;;61.35;22.85;;;7.50;99.90;;;;;;5075387;28;20055;-68
2022/05/06 05:12:47;;;;;;;67.50;21.70;;;7.60;99.90;;;;;;5075104;28;20036;-68
2022/05/06 05:15:15;;;;;;;60.22;20.98;;;7.70;99.90;;;;;;5075455;28;20028;-68
2022/05/06 05:17:41;;;;;;;48.35;22.38;;;7.70;99.90;;;;;;5074262;28;20044;-68
2022/05/06 05:20:08;;;;;;;55.05;22.95;;;7.80;99.90;;;;;;5074258;28;20111;-68
2022/05/06 05:22:35;;;;;;;87.45;24.30;;;8.00;99.90;;;;;;5076044;28;20075;-68
2022/05/06 05:25:01;;;;;;;81.80;24.42;;;8.10;99.90;;;;;;5073873;28;20047;-68
2022/05/06 05:27:27;;;;;;;49.90;22.77;;;8.20;99.90;;;;;;5093687;28;20042;-68
2022/05/06 05:29:53;;;;;;;50.10;20.38;;;8.30;99.90;;;;;;5074123;28;20424;-68
2022/05/06 05:32:18;;;;;;;45.10;19.40;;;8.40;99.90;;;;;;5075151;28;20046;-68
2022/05/06 05:34:46;;;;;;;52.75;18.38;;;8.50;99.90;;;;;;5073451;28;20036;-68
2022/05/06 05:37:12;;;;;;;36.42;19.30;;;8.50;99.90;;;;;;5075249;28;20506;-68
2022/05/06 05:39:38;;;;;;;50.92;19.60;;;8.60;99.90;;;;;;5092635;28;20043;-68
2022/05/06 05:42:04;;;;;;;39.22;17.95;;;8.70;99.90;;;;;;5058366;28;20043;-67
2022/05/06 05:50:00;;;;;;;55.67;19.55;;;8.90;99.90;;;;;;5039863;28;20044;-67
2022/05/06 05:52:26;;;;;;;74.15;19.73;;;9.00;99.90;;;;;;5093190;28;20105;-67
2022/05/06 05:54:51;;;;;;;50.42;20.17;;;9.20;99.90;;;;;;5073034;28;20458;-67
2022/05/06 05:57:17;;;;;;;64.45;20.58;;;9.30;99.90;;;;;;5089634;28;20042;-67
2022/05/06 05:59:43;;;;;;;64.05;22.17;;;9.40;99.90;;;;;;5092910;28;20036;-67
2022/05/06 06:02:10;;;;;;;67.38;21.25;;;9.40;99.90;;;;;;5077777;28;20052;-68
2022/05/06 06:04:37;;;;;;;59.65;22.83;;;9.60;99.90;;;;;;5073729;28;20238;-67
2022/05/06 06:07:03;;;;;;;45.88;23.45;;;9.60;99.90;;;;;;5093338;28;20052;-67
2022/05/06 06:09:29;;;;;;;84.78;26.58;;;9.70;99.90;;;;;;5072355;28;20483;-68
2022/05/06 06:11:54;;;;;;;67.85;25.67;;;9.80;99.90;;;;;;5092903;28;20100;-68
2022/05/06 06:14:20;;;;;;;64.13;26.88;;;9.90;99.90;;;;;;5055295;28;20550;-67
2022/05/06 06:16:47;;;;;;;64.20;26.98;;;10.00;99.90;;;;;;5056396;28;20459;-68
2022/05/06 06:19:17;;;;;;;64.20;27.20;;;10.00;99.90;;;;;;5072535;28;20040;-67
2022/05/06 06:21:43;;;;;;;76.97;28.00;;;10.10;99.90;;;;;;5057877;28;20111;-67
2022/05/06 06:24:09;;;;;;;48.38;28.88;;;10.20;99.90;;;;;;5091422;28;20043;-67
2022/05/06 06:26:35;;;;;;;50.80;27.90;;;10.40;99.90;;;;;;5091509;28;20118;-68
2022/05/06 06:29:02;;;;;;;45.53;28.95;;;10.40;99.90;;;;;;5057077;28;20044;-67
2022/05/06 06:31:31;;;;;;;51.45;29.48;;;10.50;99.90;;;;;;5092951;28;20085;-67
2022/05/06 06:34:00;;;;;;;58.92;29.27;;;10.60;99.90;;;;;;5091221;28;20044;-68
2022/05/06 06:36:26;;;;;;;46.80;29.10;;;10.70;99.90;;;;;;5056317;28;20093;-67
2022/05/06 06:38:52;;;;;;;42.13;29.33;;;10.70;99.90;;;;;;5056305;28;20134;-68
2022/05/06 06:41:20;;;;;;;41.40;27.27;;;10.80;99.90;;;;;;5091367;28;20056;-68
2022/05/06 06:43:47;;;;;;;40.40;29.13;;;10.90;99.90;;;;;;5091336;28;20051;-68
2022/05/06 06:46:13;;;;;;;45.03;30.02;;;10.90;99.90;;;;;;5093453;28;20260;-68
2022/05/06 06:48:40;;;;;;;49.28;31.10;;;11.00;99.90;;;;;;5072317;28;20055;-68
2022/05/06 06:51:06;;;;;;;39.10;29.15;;;11.10;99.90;;;;;;5072005;28;20113;-68
2022/05/06 06:53:31;;;;;;;46.28;32.35;;;11.20;99.90;;;;;;5070242;28;20141;-68
2022/05/06 06:55:57;;;;;;;48.45;32.33;;;11.30;99.90;;;;;;5071555;28;20430;-68
2022/05/06 06:58:23;;;;;;;45.78;30.08;;;11.30;99.90;;;;;;5068461;28;20040;-68
2022/05/06 07:00:49;;;;;;;44.70;30.58;;;11.40;99.90;;;;;;5068355;28;20048;-68
2022/05/06 07:03:15;;;;;;;47.88;31.80;;;11.40;99.90;;;;;;5068919;28;20408;-68
2022/05/06 07:13:55;;;;;;;51.28;31.33;;;11.70;99.90;;;;;;5070022;28;20050;-68
2022/05/06 07:16:21;;;;;;;43.55;31.10;;;11.70;99.90;;;;;;5068179;28;20110;-68
2022/05/06 07:18:47;;;;;;;45.58;30.27;;;11.80;99.90;;;;;;5067281;28;20377;-68
2022/05/06 07:21:12;;;;;;;45.00;32.47;;;11.80;99.90;;;;;;5069932;28;20039;-68
2022/05/06 07:23:38;;;;;;;43.58;30.45;;;11.90;99.90;;;;;;5068697;28;20060;-68
2022/05/06 07:26:03;;;;;;;44.22;30.35;;;12.00;99.90;;;;;;5067840;28;20437;-67
2022/05/06 07:28:38;;;;;;;37.35;27.27;;;12.10;99.90;;;;;;5134410;27;20120;-68
2022/05/06 07:31:03;;;;;;;38.00;28.13;;;12.20;99.90;;;;;;5116089;28;20126;-68
2022/05/06 07:33:29;;;;;;;37.13;27.15;;;12.30;99.90;;;;;;5100907;28;20063;-67
2022/05/06 07:35:56;;;;;;;33.03;23.88;;;12.30;99.90;;;;;;5101069;28;20507;-68
2022/05/06 07:38:22;;;;;;;30.67;23.13;;;12.30;99.90;;;;;;5114908;28;20063;-68
2022/05/06 07:40:48;;;;;;;30.80;23.33;;;12.30;99.90;;;;;;5095738;28;20067;-68
2022/05/06 07:43:14;;;;;;;26.70;20.80;;;12.40;99.90;;;;;;5092454;28;20028;-68
2022/05/06 07:45:40;;;;;;;32.67;22.45;;;12.40;99.90;;;;;;5108366;28;20047;-68
2022/05/06 07:48:08;;;;;;;28.52;21.40;;;12.60;99.90;;;;;;5091288;28;20039;-68
2022/05/06 07:50:35;;;;;;;26.10;20.63;;;12.60;99.90;;;;;;5117780;28;20040;-68
2022/05/06 07:53:00;;;;;;;25.27;19.27;;;12.80;99.90;;;;;;5097470;28;20036;-68
2022/05/06 07:55:26;;;;;;;25.27;19.80;;;13.10;99.90;;;;;;5100574;28;20044;-68
2022/05/06 07:57:53;;;;;;;25.42;19.77;;;13.20;99.90;;;;;;5095362;28;20058;-68
2022/05/06 08:00:23;;;;;;;26.05;20.02;;;13.30;99.90;;;;;;5117747;28;20475;-68
2022/05/06 08:05:33;;;;;;;19.75;15.82;;;13.50;99.90;;;;;;5117154;28;20122;-67
2022/05/06 08:07:59;;;;;;;17.80;15.55;;;13.60;99.90;;;;;;5096535;28;20069;-68
2022/05/06 08:10:25;;;;;;;17.80;14.73;;;13.80;99.90;;;;;;5094970;28;20079;-68
2022/05/06 08:12:50;;;;;;;15.88;13.50;;;14.00;99.90;;;;;;5091498;28;20124;-68
2022/05/06 08:15:16;;;;;;;16.50;14.27;;;14.20;99.90;;;;;;5114820;28;20074;-68
2022/05/06 08:17:42;;;;;;;16.65;14.38;;;14.20;99.90;;;;;;5093747;28;20066;-68
2022/05/06 08:20:09;;;;;;;16.05;14.15;;;14.20;99.90;;;;;;5114920;28;20040;-69
2022/05/06 08:22:38;;;;;;;15.48;12.55;;;14.30;99.90;;;;;;5114572;28;20077;-68
2022/05/06 08:25:08;;;;;;;14.77;12.45;;;14.30;99.90;;;;;;5078592;28;20044;-68
2022/05/06 08:27:38;;;;;;;13.38;11.73;;;14.30;99.90;;;;;;5111170;28;20056;-68
2022/05/06 08:30:05;;;;;;;14.00;12.18;;;14.30;99.90;;;;;;5080838;28;20127;-68
2022/05/06 08:32:30;;;;;;;13.45;11.88;;;14.30;99.90;;;;;;5108879;28;20067;-68
2022/05/06 08:34:56;;;;;;;12.85;11.45;;;14.50;99.90;;;;;;5090177;28;20463;-68
2022/05/06 08:37:24;;;;;;;12.30;11.00;;;14.60;99.90;;;;;;5090125;28;20060;-68
2022/05/06 08:39:50;;;;;;;12.35;11.10;;;15.00;99.90;;;;;;5097688;28;20040;-69
2022/05/06 08:42:20;;;;;;;13.48;11.70;;;15.50;99.90;;;;;;5084250;28;20078;-69
2022/05/06 08:53:07;;;;;;;12.77;11.48;;;18.60;99.90;;;;;;5097944;28;20125;-69
2022/05/06 08:55:33;;;;;;;13.13;11.68;;;19.20;99.90;;;;;;5082531;28;20123;-69
2022/05/06 08:57:59;;;;;;;12.98;11.65;;;19.50;99.90;;;;;;5098740;28;20127;-69
2022/05/06 09:00:26;;;;;;;13.52;12.13;;;19.60;99.50;;;;;;5100552;28;20036;-69
2022/05/06 09:02:52;;;;;;;13.18;11.77;;;19.80;99.90;;;;;;5096733;28;20040;-69
2022/05/06 09:05:19;;;;;;;11.82;10.73;;;20.30;99.00;;;;;;5082297;28;20051;-69
2022/05/06 09:08:04;;;;;;;11.77;10.57;;;20.80;97.30;;;;;;5082410;28;20056;-69
2022/05/06 09:10:30;;;;;;;11.32;10.20;;;21.10;94.90;;;;;;5082092;28;20111;-70
2022/05/06 09:13:02;;;;;;;11.00;10.00;;;21.30;93.60;;;;;;5100107;28;20430;-70
2022/05/06 09:18:22;;;;;;;10.85;9.75;;;21.80;91.70;;;;;;5077885;28;20070;-69
2022/05/06 09:20:49;;;;;;;11.70;10.55;;;22.20;86.00;;;;;;5104587;28;20108;-69
2022/05/06 09:23:28;;;;;;;11.52;10.23;;;22.00;86.10;;;;;;5100504;28;20040;-70
2022/05/06 09:25:55;;;;;;;10.75;9.65;;;21.90;83.20;;;;;;5099457;28;20333;-69
2022/05/06 09:28:25;;;;;;;11.15;10.15;;;22.00;85.00;;;;;;5098340;28;20052;-69
2022/05/06 09:30:58;;;;;;;10.05;9.15;;;21.80;80.10;;;;;;5095061;28;20365;-69
2022/05/06 09:33:25;;;;;;;9.10;8.32;;;21.90;80.80;;;;;;5082549;28;20444;-69
2022/05/06 09:35:51;;;;;;;7.05;6.45;;;21.90;79.60;;;;;;5063263;28;20051;-69
2022/05/06 09:38:17;;;;;;;6.07;5.57;;;21.60;76.50;;;;;;5078325;28;20069;-69
2022/05/06 09:40:43;;;;;;;6.55;5.95;;;21.50;75.90;;;;;;5103686;28;20508;-69
2022/05/06 09:43:16;;;;;;;7.30;6.70;;;21.60;76.90;;;;;;5098130;28;20048;-69
2022/05/06 09:45:43;;;;;;;5.65;5.15;;;21.50;75.80;;;;;;5078780;28;20117;-69
2022/05/06 09:48:11;;;;;;;6.20;5.20;;;21.00;74.80;;;;;;5061475;28;20515;-69
2022/05/06 09:50:45;;;;;;;6.07;5.57;;;21.00;76.10;;;;;;5069022;28;20111;-69
2022/05/06 09:53:13;;;;;;;5.53;5.13;;;21.30;76.80;;;;;;5098614;28;20529;-70
2022/05/06 09:55:41;;;;;;;6.30;5.80;;;21.60;74.90;;;;;;5096715;28;20601;-70
2022/05/06 09:58:08;;;;;;;6.78;5.85;;;21.60;73.90;;;;;;5094469;28;20421;-70
2022/05/06 10:00:34;;;;;;;7.28;5.07;;;21.60;74.00;;;;;;5078777;28;20058;-71
2022/05/06 10:03:01;;;;;;;4.35;3.95;;;21.80;74.00;;;;;;5094657;28;20062;-71
2022/05/06 10:05:32;;;;;;;3.88;3.45;;;21.90;70.10;;;;;;5075757;28;20056;-71
2022/05/06 10:08:08;;;;;;;4.53;4.13;;;22.10;70.50;;;;;;5095648;28;20036;-71
2022/05/06 10:10:41;;;;;;;5.45;4.95;;;22.00;66.70;;;;;;5082383;28;20155;-69
2022/05/06 10:13:13;;;;;;;4.57;4.20;;;21.90;68.40;;;;;;5074637;28;20040;-69
2022/05/06 10:15:39;;;;;;;4.97;4.45;;;22.00;70.50;;;;;;5079280;28;20182;-68
2022/05/06 10:18:07;;;;;;;5.32;4.78;;;22.10;69.60;;;;;;5074510;28;20562;-69
2022/05/06 10:20:36;;;;;;;4.40;4.00;;;22.20;68.60;;;;;;5092917;28;20043;-69
2022/05/06 10:23:07;;;;;;;6.93;3.90;;;22.40;68.60;;;;;;5072866;28;20086;-70
2022/05/06 10:25:42;;;;;;;4.75;3.97;;;22.60;68.40;;;;;;5074808;28;20455;-70
2022/05/06 10:34:16;;;;;;;3.67;3.42;;;22.80;65.80;;;;;;5094335;28;20093;-70
2022/05/06 10:36:47;;;;;;;7.50;3.65;;;23.00;65.50;;;;;;5094779;28;20047;-70
2022/05/06 10:39:19;;;;;;;4.10;3.80;;;23.20;65.90;;;;;;5074989;28;20079;-70
2022/05/06 10:42:06;;;;;;;3.80;3.50;;;23.40;64.60;;;;;;5094932;28;20040;-70
2022/05/06 10:44:42;;;;;;;4.72;3.10;;;23.40;60.30;;;;;;5096646;28;20118;-71
2022/05/06 10:47:16;;;;;;;4.47;3.30;;;23.40;62.60;;;;;;5100789;28;20070;-70
2022/05/06 10:49:43;;;;;;;3.53;3.22;;;23.20;59.30;;;;;;5096150;28;20043;-70
2022/05/06 10:54:54;;;;;;;3.40;3.10;;;23.40;61.30;;;;;;5097929;28;20043;-70
2022/05/06 10:57:25;;;;;;;3.80;3.50;;;23.60;60.80;;;;;;5093694;28;20036;-70
2022/05/06 10:59:53;;;;;;;3.70;3.40;;;23.80;60.30;;;;;;5077552;28;20052;-70
2022/05/06 11:02:38;;;;;;;3.15;2.83;;;24.00;60.50;;;;;;5098720;28;20111;-70
2022/05/06 11:05:09;;;;;;;3.30;2.90;;;24.10;56.80;;;;;;5075672;28;20131;-70
2022/05/06 11:07:36;;;;;;;3.72;3.03;;;24.10;57.50;;;;;;5095852;28;20072;-70
2022/05/06 11:10:12;;;;;;;4.22;3.17;;;24.20;57.60;;;;;;5097671;28;20047;-68
2022/05/06 11:12:47;;;;;;;3.22;2.78;;;24.20;55.70;;;;;;5093909;28;20040;-71
2022/05/06 11:15:18;;;;;;;3.95;3.30;;;24.20;56.10;;;;;;5100854;28;20526;-70
2022/05/06 11:17:45;;;;;;;3.75;3.10;;;24.30;55.70;;;;;;5076956;28;20062;-70
2022/05/06 11:20:23;;;;;;;3.83;3.22;;;24.20;57.00;;;;;;5082420;28;20051;-70
2022/05/06 11:23:08;;;;;;;5.10;3.60;;;24.40;56.10;;;;;;5095263;28;20039;-70
2022/05/06 11:25:36;;;;;;;6.38;3.13;;;24.70;56.20;;;;;;5098937;28;20509;-70
2022/05/06 11:28:08;;;;;;;3.22;2.95;;;24.80;55.30;;;;;;5097093;28;20040;-70
2022/05/06 11:30:34;;;;;;;2.17;1.80;;;24.80;53.40;;;;;;5071484;28;20059;-70
2022/05/06 11:33:02;;;;;;;3.83;1.98;;;24.60;52.40;;;;;;5075915;28;20060;-70
2022/05/06 11:36:06;;;;;;;3.65;2.00;;;24.70;51.60;;;;;;5098636;28;20528;-69
2022/05/06 11:38:37;;;;;;;1.95;1.45;;;24.70;49.50;;;;;;5085540;28;20048;-70
2022/05/06 11:41:07;;;;;;;3.08;1.70;;;24.80;52.40;;;;;;5078950;28;20048;-70
2022/05/06 11:43:33;;;;;;;2.08;1.42;;;25.10;51.40;;;;;;5078510;28;20118;-70
2022/05/06 11:48:44;;;;;;;1.85;0.88;;;25.10;48.90;;;;;;5096899;28;20145;-70
2022/05/06 11:51:20;;;;;;;4.15;0.90;;;25.10;48.70;;;;;;5098731;28;20044;-70
2022/05/06 11:53:46;;;;;;;3.53;1.13;;;25.10;48.40;;;;;;5096018;28;20040;-70
2022/05/06 11:56:12;;;;;;;3.55;1.30;;;25.20;50.50;;;;;;5101989;28;20047;-70
2022/05/06 11:58:39;;;;;;;3.00;1.30;;;25.40;49.30;;;;;;5076480;28;20487;-69
2022/05/06 12:01:05;;;;;;;3.40;1.05;;;25.70;49.50;;;;;;5092824;28;20035;-71
2022/05/06 12:03:31;;;;;;;1.95;1.10;;;26.00;49.90;;;;;;5092846;28;20088;-71
2022/05/06 12:06:05;;;;;;;1.52;1.20;;;26.10;48.60;;;;;;5073415;28;20044;-70
2022/05/06 12:08:33;;;;;;;2.75;1.00;;;26.00;47.40;;;;;;5096134;28;20047;-70
2022/05/06 12:11:03;;;;;;;1.60;1.10;;;25.90;48.60;;;;;;5080444;28;20125;-70
2022/05/06 12:13:38;;;;;;;2.28;1.20;;;26.00;48.20;;;;;;5075695;28;20526;-70
2022/05/06 12:16:14;;;;;;;2.90;1.30;;;26.00;48.30;;;;;;5076717;28;20612;-70
2022/05/06 12:18:52;;;;;;;3.20;1.25;;;26.20;48.50;;;;;;5099137;28;20039;-70
2022/05/06 12:21:20;;;;;;;2.85;1.00;;;26.10;48.40;;;;;;5098279;28;20115;-71
2022/05/06 12:23:51;;;;;;;4.22;1.70;;;26.20;48.70;;;;;;5079429;28;20044;-70
2022/05/06 12:26:28;;;;;;;1.95;1.20;;;26.10;48.30;;;;;;5077587;28;20056;-70
2022/05/06 12:28:53;;;;;;;2.15;1.10;;;26.10;48.80;;;;;;5081899;28;20464;-70
2022/05/06 12:31:26;;;;;;;6.78;1.63;;;26.30;49.10;;;;;;5080360;28;20063;-70
2022/05/06 12:34:00;;;;;;;2.55;1.48;;;26.40;49.30;;;;;;5100188;28;20043;-70
2022/05/06 12:36:26;;;;;;;;;;;26.60;49.30;;;;;;5098666;28;20040;-70
2022/05/06 12:38:51;;;;;;;3.55;1.80;;;26.90;50.60;;;;;;5076877;28;19920;-67
2022/05/06 12:41:25;;;;;;;5.97;1.95;;;26.90;48.70;;;;;;5086269;28;20052;-73
2022/05/06 12:43:53;;;;;;;2.47;1.70;;;26.70;47.90;;;;;;5086683;28;20099;-80
2022/05/06 12:46:26;;;;;;;3.25;1.50;;;26.60;49.00;;;;;;5091598;28;20052;-80
2022/05/06 12:51:41;;;;;;;1.83;1.73;;;26.90;48.70;;;;;;5087013;28;20044;-80
2022/05/06 12:54:07;;;;;;;4.43;2.10;;;27.00;48.40;;;;;;5087057;28;20032;-80
2022/05/06 12:56:34;;;;;;;4.47;1.83;;;26.80;48.10;;;;;;5072586;28;20051;-80
2022/05/06 12:59:00;;;;;;;3.65;1.92;;;26.80;49.20;;;;;;5066915;28;20075;-80
2022/05/06 13:01:25;;;;;;;4.78;1.73;;;27.00;50.00;;;;;;5088377;28;20067;-71
2022/05/06 13:03:51;;;;;;;2.85;1.58;;;27.20;49.00;;;;;;5082864;28;20047;-72
2022/05/06 13:06:17;;;;;;;2.72;1.35;;;27.30;48.60;;;;;;5081866;28;20092;-71
2022/05/06 13:08:42;;;;;;;2.45;1.40;;;27.50;48.30;;;;;;5080496;28;20122;-71
2022/05/06 13:11:08;;;;;;;8.50;1.67;;;27.20;47.00;;;;;;5078221;28;20530;-71
2022/05/06 13:13:34;;;;;;;3.53;0.88;;;26.80;47.50;;;;;;5079644;28;20098;-71
2022/05/06 13:15:59;;;;;;;2.05;1.00;;;26.50;47.10;;;;;;5077575;28;20036;-72
2022/05/06 13:18:26;;;;;;;3.85;1.50;;;26.30;47.80;;;;;;5083104;28;20140;-72
2022/05/06 13:20:52;;;;;;;4.05;1.75;;;26.10;48.70;;;;;;5077749;28;20036;-72
2022/05/06 13:23:17;;;;;;;3.05;1.67;;;25.90;49.30;;;;;;5080780;28;20610;-72
2022/05/06 13:25:44;;;;;;;4.68;2.40;;;25.60;49.20;;;;;;5101562;28;20039;-72
2022/05/06 13:28:10;;;;;;;3.60;1.85;;;25.20;50.80;;;;;;5077974;28;20063;-72
2022/05/06 13:30:35;;;;;;;5.00;1.70;;;25.00;51.80;;;;;;5083269;28;20043;-72
2022/05/06 13:33:01;;;;;;;6.05;2.75;;;25.10;52.10;;;;;;5098254;28;20043;-72
2022/05/06 13:35:28;;;;;;;7.80;2.55;;;25.20;52.50;;;;;;5081166;28;20040;-72